Time;durP1;ratioP1;P1;durP2;ratioP2;P2;SDS_P1;SDS_P2;PMS_P1;PMS_P2;Temp;Humidity;BMP_temperature;BMP_pressure;BME280_temperature;BME280_humidity;BME280_pressure;Samples;Min_cycle;Max_cycle;Signal;HPM_P1;HPM_P2
2022/03/10 00:00:14;;;;;;;16.38;11.95;;;3.70;71.40;;;;;;5033463;28;20198;-59
2022/03/10 00:02:42;;;;;;;16.15;12.02;;;3.70;72.00;;;;;;5033422;28;20209;-59
2022/03/10 00:05:11;;;;;;;16.83;12.60;;;3.60;72.50;;;;;;5032925;28;20203;-59
2022/03/10 00:07:40;;;;;;;14.75;11.55;;;3.60;72.90;;;;;;5033031;28;20249;-59
2022/03/10 00:10:08;;;;;;;14.68;11.45;;;3.60;73.40;;;;;;5032852;28;20239;-59
2022/03/10 00:12:36;;;;;;;12.88;11.10;;;3.50;73.70;;;;;;5033068;28;20241;-59
2022/03/10 00:15:05;;;;;;;13.45;10.13;;;3.50;74.00;;;;;;5033157;28;20245;-59
2022/03/10 00:17:32;;;;;;;13.85;11.70;;;3.50;74.40;;;;;;5032837;28;20225;-59
2022/03/10 00:19:59;;;;;;;14.82;11.38;;;3.50;74.50;;;;;;5033216;28;20202;-59
2022/03/10 00:22:26;;;;;;;13.85;12.10;;;3.40;74.50;;;;;;5032905;28;20678;-59
2022/03/10 00:24:54;;;;;;;14.05;10.85;;;3.40;74.70;;;;;;5034895;28;20213;-59
2022/03/10 00:27:21;;;;;;;16.42;11.65;;;3.40;74.90;;;;;;5037321;28;20233;-59
2022/03/10 00:29:48;;;;;;;12.57;10.55;;;3.40;75.10;;;;;;5037137;28;20218;-59
2022/03/10 00:32:15;;;;;;;17.85;12.25;;;3.40;75.40;;;;;;5037950;28;20209;-59
2022/03/10 00:34:42;;;;;;;16.83;11.93;;;3.30;75.60;;;;;;5036916;28;20233;-59
2022/03/10 00:37:09;;;;;;;17.67;12.50;;;3.30;75.90;;;;;;5036609;28;20233;-59
2022/03/10 00:39:37;;;;;;;16.92;12.27;;;3.30;76.30;;;;;;5037121;28;20575;-59
2022/03/10 00:42:06;;;;;;;15.50;12.23;;;3.30;76.30;;;;;;5037095;28;20671;-60
2022/03/10 00:44:33;;;;;;;14.18;11.43;;;3.30;76.50;;;;;;5036640;28;20233;-58
2022/03/10 00:47:00;;;;;;;22.27;11.95;;;3.30;76.90;;;;;;5036889;28;20218;-59
2022/03/10 00:49:27;;;;;;;13.13;10.48;;;3.30;76.90;;;;;;5036573;28;20212;-60
2022/03/10 00:51:54;;;;;;;14.18;11.60;;;3.20;76.80;;;;;;5036397;28;20199;-59
2022/03/10 00:54:22;;;;;;;14.25;12.20;;;3.20;77.20;;;;;;5036370;28;20225;-59
2022/03/10 00:56:49;;;;;;;17.95;12.30;;;3.20;77.50;;;;;;5036817;28;20599;-58
2022/03/10 00:59:17;;;;;;;14.38;12.15;;;3.20;77.80;;;;;;5036710;28;20582;-58
2022/03/10 01:01:44;;;;;;;15.32;12.13;;;3.20;77.60;;;;;;5036799;28;20210;-59
2022/03/10 01:04:11;;;;;;;13.20;11.60;;;3.20;77.80;;;;;;5037236;28;20217;-59
2022/03/10 01:06:39;;;;;;;16.58;10.65;;;3.10;77.70;;;;;;5037653;28;20226;-58
2022/03/10 01:09:06;;;;;;;18.33;11.32;;;3.20;77.80;;;;;;5037650;28;20589;-58
2022/03/10 01:11:34;;;;;;;16.05;11.82;;;3.20;77.70;;;;;;5037601;28;20213;-58
2022/03/10 01:14:02;;;;;;;14.73;12.40;;;3.10;77.50;;;;;;5036827;28;20634;-58
2022/03/10 01:16:30;;;;;;;14.90;11.48;;;3.10;77.50;;;;;;5036743;28;20222;-58
2022/03/10 01:18:57;;;;;;;16.88;11.55;;;3.10;77.40;;;;;;5037055;28;20210;-58
2022/03/10 01:21:24;;;;;;;15.30;11.05;;;3.10;77.40;;;;;;5036815;28;20682;-58
2022/03/10 01:23:51;;;;;;;11.82;10.13;;;3.10;77.40;;;;;;5037032;28;20285;-58
2022/03/10 01:26:18;;;;;;;16.33;12.32;;;3.10;77.40;;;;;;5036380;28;20601;-58
2022/03/10 01:28:45;;;;;;;15.65;11.68;;;3.10;77.40;;;;;;5036106;28;20214;-58
2022/03/10 01:31:12;;;;;;;15.50;10.75;;;3.10;77.40;;;;;;5035873;28;20209;-58
2022/03/10 01:33:41;;;;;;;13.23;10.93;;;3.10;77.30;;;;;;5035796;28;20202;-58
2022/03/10 01:36:08;;;;;;;15.25;11.27;;;3.10;77.40;;;;;;5034932;28;20241;-59
2022/03/10 01:38:39;;;;;;;15.75;11.88;;;3.10;77.30;;;;;;5036005;28;20309;-59
2022/03/10 01:41:06;;;;;;;13.13;10.73;;;3.10;77.30;;;;;;5035887;28;20266;-58
2022/03/10 01:43:33;;;;;;;15.20;11.52;;;3.00;77.40;;;;;;5036052;28;20183;-59
2022/03/10 01:46:02;;;;;;;16.00;11.15;;;3.00;77.60;;;;;;5035758;28;20218;-59
2022/03/10 01:48:29;;;;;;;14.57;10.48;;;2.90;77.70;;;;;;5035568;28;20203;-59
2022/03/10 01:50:57;;;;;;;13.07;11.02;;;2.90;78.00;;;;;;5035714;28;20209;-59
2022/03/10 01:53:24;;;;;;;12.52;11.23;;;2.90;78.00;;;;;;5035455;28;20688;-58
2022/03/10 01:55:52;;;;;;;14.35;11.68;;;2.90;78.20;;;;;;5035291;28;20226;-58
2022/03/10 01:58:19;;;;;;;14.85;11.85;;;2.90;78.30;;;;;;5035709;28;20202;-58
2022/03/10 02:00:46;;;;;;;15.70;11.30;;;2.80;78.40;;;;;;5035685;28;20286;-59
2022/03/10 02:03:13;;;;;;;15.57;12.65;;;2.80;78.40;;;;;;5036109;28;20214;-59
2022/03/10 02:05:40;;;;;;;12.77;10.43;;;2.80;78.40;;;;;;5036543;28;20211;-58
2022/03/10 02:10:53;;;;;;;13.45;11.10;;;2.80;78.30;;;;;;5035270;28;20277;-59
2022/03/10 02:13:20;;;;;;;12.23;10.15;;;2.80;78.20;;;;;;5035181;28;20202;-59
2022/03/10 02:18:31;;;;;;;12.75;10.52;;;2.70;77.80;;;;;;5035240;28;20268;-59
2022/03/10 02:20:58;;;;;;;17.17;11.88;;;2.80;78.10;;;;;;5035077;28;20260;-59
2022/03/10 02:23:27;;;;;;;15.10;11.45;;;2.70;77.90;;;;;;5035777;28;20202;-59
2022/03/10 02:25:58;;;;;;;13.00;10.40;;;2.70;77.90;;;;;;5035571;28;20215;-59
2022/03/10 02:28:26;;;;;;;11.90;10.20;;;2.70;77.80;;;;;;5035107;28;20213;-59
2022/03/10 02:30:53;;;;;;;13.02;10.70;;;2.70;77.80;;;;;;5034909;28;20523;-59
2022/03/10 02:33:20;;;;;;;13.63;11.15;;;2.70;77.90;;;;;;5034670;28;20202;-59
2022/03/10 02:35:47;;;;;;;14.40;10.48;;;2.70;77.70;;;;;;5034337;28;20230;-59
2022/03/10 02:38:17;;;;;;;14.43;10.48;;;2.60;77.60;;;;;;5034865;28;20209;-57
2022/03/10 02:40:46;;;;;;;15.23;10.43;;;2.60;77.70;;;;;;5034753;28;20271;-57
2022/03/10 02:43:13;;;;;;;14.73;11.07;;;2.60;77.70;;;;;;5034846;28;20255;-59
2022/03/10 02:45:40;;;;;;;13.80;10.70;;;2.60;77.50;;;;;;5034681;28;20201;-57
2022/03/10 02:48:07;;;;;;;15.43;10.68;;;2.60;77.50;;;;;;5033188;28;20693;-58
2022/03/10 02:50:35;;;;;;;12.80;9.35;;;2.60;77.60;;;;;;5034474;28;20671;-59
2022/03/10 02:53:02;;;;;;;20.42;10.63;;;2.60;77.50;;;;;;5034721;28;20206;-57
2022/03/10 02:55:31;;;;;;;14.40;10.65;;;2.50;77.20;;;;;;5034967;28;20732;-58
2022/03/10 02:58:00;;;;;;;16.70;11.32;;;2.50;77.40;;;;;;5035766;28;20207;-57
2022/03/10 03:00:27;;;;;;;12.05;10.80;;;2.50;77.40;;;;;;5034737;28;20545;-58
2022/03/10 03:02:54;;;;;;;15.88;11.30;;;2.40;77.40;;;;;;5034092;28;20210;-57
2022/03/10 03:05:21;;;;;;;15.65;11.20;;;2.40;77.70;;;;;;5034003;28;20202;-59
2022/03/10 03:07:49;;;;;;;15.73;11.20;;;2.40;77.90;;;;;;5034003;28;20706;-57
2022/03/10 03:10:17;;;;;;;17.33;11.82;;;2.40;77.90;;;;;;5034281;28;20253;-57
2022/03/10 03:12:45;;;;;;;13.88;11.35;;;2.40;78.00;;;;;;5034218;28;20663;-59
2022/03/10 03:15:14;;;;;;;12.27;10.50;;;2.40;77.90;;;;;;5034044;28;20272;-59
2022/03/10 03:17:41;;;;;;;16.30;11.43;;;2.40;77.90;;;;;;5033767;28;20222;-59
2022/03/10 03:20:14;;;;;;;12.55;9.88;;;2.30;77.70;;;;;;5034035;28;20202;-58
2022/03/10 03:22:41;;;;;;;14.48;11.45;;;2.30;77.80;;;;;;5034010;28;20191;-58
2022/03/10 03:25:09;;;;;;;15.15;11.60;;;2.30;77.80;;;;;;5034130;28;20634;-58
2022/03/10 03:27:36;;;;;;;17.42;11.38;;;2.30;78.00;;;;;;5034258;28;20227;-58
2022/03/10 03:30:05;;;;;;;17.95;11.38;;;2.30;78.10;;;;;;5033941;28;20209;-58
2022/03/10 03:32:35;;;;;;;13.35;9.95;;;2.30;77.90;;;;;;5034110;28;20202;-58
2022/03/10 03:35:03;;;;;;;14.70;10.80;;;2.30;77.90;;;;;;5033505;28;20225;-58
2022/03/10 03:37:30;;;;;;;14.20;11.57;;;2.30;78.10;;;;;;5034417;28;20230;-58
2022/03/10 03:39:57;;;;;;;14.05;11.13;;;2.20;78.10;;;;;;5034457;28;20206;-58
2022/03/10 03:42:24;;;;;;;20.00;10.90;;;2.20;78.30;;;;;;5034199;28;20198;-58
2022/03/10 03:44:51;;;;;;;18.60;11.45;;;2.20;78.50;;;;;;5034156;28;20662;-58
2022/03/10 03:47:18;;;;;;;20.25;12.15;;;2.10;78.70;;;;;;5034453;28;20226;-58
2022/03/10 03:49:46;;;;;;;14.15;11.50;;;2.10;78.90;;;;;;5034104;28;20261;-58
2022/03/10 03:52:13;;;;;;;19.50;11.93;;;2.10;79.10;;;;;;5033405;28;20683;-59
2022/03/10 03:54:40;;;;;;;16.10;11.63;;;2.10;79.30;;;;;;5033174;28;20198;-59
2022/03/10 03:57:08;;;;;;;16.27;11.13;;;2.10;79.60;;;;;;5033277;28;20225;-59
2022/03/10 03:59:35;;;;;;;16.38;11.65;;;2.00;79.80;;;;;;5032973;28;20202;-58
2022/03/10 04:02:02;;;;;;;13.57;11.65;;;2.00;79.80;;;;;;5033351;28;20209;-59
2022/03/10 04:04:29;;;;;;;15.07;11.07;;;2.00;80.00;;;;;;5033489;28;20207;-59
2022/03/10 04:09:27;;;;;;;14.13;12.13;;;1.90;79.60;;;;;;5173752;27;20615;-58
2022/03/10 04:11:54;;;;;;;14.82;11.60;;;1.90;79.90;;;;;;5173214;27;20201;-58
2022/03/10 04:14:21;;;;;;;15.70;11.00;;;1.90;80.10;;;;;;5173113;27;20197;-59
2022/03/10 04:16:49;;;;;;;17.27;13.40;;;1.90;80.50;;;;;;5172942;27;20221;-58
2022/03/10 04:19:16;;;;;;;17.08;12.13;;;1.80;80.70;;;;;;5172670;27;20193;-58
2022/03/10 04:21:43;;;;;;;14.45;11.48;;;1.80;81.00;;;;;;5161358;22;20227;-60
2022/03/10 04:24:10;;;;;;;19.00;12.25;;;1.80;81.00;;;;;;5132481;28;20545;-60
2022/03/10 04:26:39;;;;;;;14.98;12.07;;;1.80;81.50;;;;;;5132586;27;20195;-59
2022/03/10 04:29:06;;;;;;;13.52;12.13;;;1.70;81.60;;;;;;5141723;27;20218;-59
2022/03/10 04:31:33;;;;;;;18.30;13.30;;;1.70;81.70;;;;;;5139276;28;20226;-59
2022/03/10 04:34:00;;;;;;;14.88;11.32;;;1.70;81.90;;;;;;5137948;28;20203;-59
2022/03/10 04:36:27;;;;;;;14.20;12.05;;;1.70;82.40;;;;;;5137463;28;20550;-60
2022/03/10 04:38:54;;;;;;;15.40;11.23;;;1.70;82.30;;;;;;5136979;28;20255;-60
2022/03/10 04:41:22;;;;;;;14.45;11.40;;;1.70;82.60;;;;;;5136315;27;20219;-60
2022/03/10 04:43:50;;;;;;;14.50;12.77;;;1.70;82.70;;;;;;5136994;28;20195;-59
2022/03/10 04:46:18;;;;;;;16.02;11.70;;;1.70;82.80;;;;;;5137502;28;20574;-60
2022/03/10 04:48:45;;;;;;;17.60;12.07;;;1.70;82.80;;;;;;5137532;28;20219;-60
2022/03/10 04:51:12;;;;;;;16.85;12.98;;;1.60;82.90;;;;;;5136878;28;20217;-59
2022/03/10 04:53:39;;;;;;;16.40;12.18;;;1.60;83.20;;;;;;5137069;28;20195;-58
2022/03/10 04:56:06;;;;;;;15.98;12.88;;;1.60;83.20;;;;;;5137945;28;20202;-59
2022/03/10 04:58:33;;;;;;;16.67;12.90;;;1.60;83.10;;;;;;5138142;28;20248;-60
2022/03/10 05:01:02;;;;;;;13.00;11.57;;;1.60;83.40;;;;;;5131856;27;20226;-60
2022/03/10 05:03:29;;;;;;;16.20;11.63;;;1.50;83.40;;;;;;5131143;28;20214;-59
2022/03/10 05:05:56;;;;;;;14.02;11.35;;;1.50;83.70;;;;;;5131556;27;20199;-59
2022/03/10 05:08:23;;;;;;;17.17;12.60;;;1.60;84.00;;;;;;5131071;28;20226;-60
2022/03/10 05:10:50;;;;;;;12.93;10.73;;;1.60;84.10;;;;;;5131136;28;20589;-59
2022/03/10 05:13:17;;;;;;;14.95;11.55;;;1.50;84.10;;;;;;5131853;27;20576;-60
2022/03/10 05:15:44;;;;;;;15.02;12.32;;;1.50;84.30;;;;;;5130703;27;20199;-60
2022/03/10 05:18:12;;;;;;;16.88;12.20;;;1.50;84.40;;;;;;5130870;28;20551;-59
2022/03/10 05:20:40;;;;;;;15.45;12.10;;;1.60;84.20;;;;;;5117452;28;20232;-60
2022/03/10 05:23:07;;;;;;;15.23;12.43;;;1.50;84.20;;;;;;5117531;28;20237;-60
2022/03/10 05:25:36;;;;;;;16.15;11.52;;;1.50;84.20;;;;;;5117201;28;20200;-61
2022/03/10 05:28:04;;;;;;;19.55;12.20;;;1.50;84.50;;;;;;5117031;28;20222;-58
2022/03/10 05:30:31;;;;;;;22.10;12.48;;;1.50;84.50;;;;;;5118097;28;20223;-59
2022/03/10 05:32:58;;;;;;;20.75;14.18;;;1.50;84.50;;;;;;5117833;28;20210;-60
2022/03/10 05:35:29;;;;;;;13.15;11.70;;;1.50;84.60;;;;;;5118599;28;20203;-59
2022/03/10 05:37:57;;;;;;;15.43;12.27;;;1.50;84.60;;;;;;5118137;28;20191;-60
2022/03/10 05:40:24;;;;;;;15.35;12.20;;;1.50;84.50;;;;;;5120859;28;20707;-59
2022/03/10 05:42:54;;;;;;;17.35;12.65;;;1.50;84.70;;;;;;5125399;28;20207;-59
2022/03/10 05:45:21;;;;;;;16.17;11.75;;;1.50;84.80;;;;;;5125179;28;20202;-59
2022/03/10 05:47:49;;;;;;;13.27;11.90;;;1.50;84.80;;;;;;5123453;28;20304;-60
2022/03/10 05:50:16;;;;;;;17.48;12.25;;;1.50;85.00;;;;;;5122497;28;20280;-59
2022/03/10 05:52:46;;;;;;;14.38;11.38;;;1.50;84.90;;;;;;5117912;28;20211;-60
2022/03/10 05:55:14;;;;;;;31.70;13.13;;;1.50;84.80;;;;;;5117021;28;20204;-60
2022/03/10 05:57:41;;;;;;;18.73;12.93;;;1.50;84.80;;;;;;5116415;28;20196;-58
2022/03/10 06:00:10;;;;;;;15.07;11.98;;;1.50;84.70;;;;;;5116409;28;20265;-59
2022/03/10 06:02:38;;;;;;;18.67;13.57;;;1.50;84.60;;;;;;5117647;28;20226;-60
2022/03/10 06:05:05;;;;;;;17.75;11.88;;;1.50;84.70;;;;;;5116396;28;20231;-59
2022/03/10 06:07:33;;;;;;;14.25;11.45;;;1.50;84.90;;;;;;5116819;28;20196;-58
2022/03/10 06:10:03;;;;;;;17.52;12.68;;;1.50;85.20;;;;;;5115616;28;20248;-59
2022/03/10 06:12:30;;;;;;;15.85;12.27;;;1.50;85.30;;;;;;5116547;28;20195;-59
2022/03/10 06:14:58;;;;;;;14.93;12.45;;;1.60;85.10;;;;;;5116142;28;20203;-59
2022/03/10 06:17:25;;;;;;;14.65;12.38;;;1.60;85.00;;;;;;5115485;28;20203;-59
2022/03/10 06:19:52;;;;;;;18.85;12.95;;;1.60;85.10;;;;;;5115647;28;20200;-61
2022/03/10 06:22:20;;;;;;;15.60;11.25;;;1.60;85.10;;;;;;5115246;28;20188;-60
2022/03/10 06:24:48;;;;;;;18.50;13.68;;;1.70;85.10;;;;;;5115639;28;20551;-60
2022/03/10 06:27:18;;;;;;;14.65;11.73;;;1.70;85.00;;;;;;5115970;28;20199;-60
2022/03/10 06:29:45;;;;;;;15.95;11.40;;;1.80;84.90;;;;;;5115662;28;20227;-59
2022/03/10 06:32:13;;;;;;;16.60;12.77;;;1.80;85.30;;;;;;5115307;28;20210;-59
2022/03/10 06:34:40;;;;;;;14.00;12.50;;;1.90;84.70;;;;;;5116029;28;20196;-59
2022/03/10 06:37:07;;;;;;;16.48;13.05;;;1.90;84.70;;;;;;5115473;28;20211;-59
2022/03/10 06:39:35;;;;;;;18.83;12.90;;;2.00;84.30;;;;;;5115635;28;20203;-59
2022/03/10 06:42:03;;;;;;;17.33;11.80;;;2.00;84.20;;;;;;5115574;28;20224;-59
2022/03/10 06:44:33;;;;;;;16.58;13.10;;;2.10;84.20;;;;;;5115266;28;20297;-60
2022/03/10 06:47:00;;;;;;;19.63;13.38;;;2.20;84.00;;;;;;5115176;28;20203;-60
2022/03/10 06:49:27;;;;;;;19.00;12.30;;;2.20;83.50;;;;;;5115518;28;20305;-60
2022/03/10 06:51:54;;;;;;;14.38;12.00;;;2.30;83.20;;;;;;5115233;28;20245;-60
2022/03/10 06:54:22;;;;;;;21.42;13.20;;;2.30;82.80;;;;;;5115451;28;20199;-59
2022/03/10 06:56:49;;;;;;;17.80;13.05;;;2.40;82.80;;;;;;5115761;28;20218;-60
2022/03/10 06:59:16;;;;;;;21.58;12.20;;;2.50;82.50;;;;;;5115351;28;20207;-61
2022/03/10 07:01:44;;;;;;;17.38;11.82;;;2.50;82.10;;;;;;5115346;28;20224;-61
2022/03/10 07:04:11;;;;;;;20.75;13.05;;;2.60;81.90;;;;;;5115508;28;20251;-60
2022/03/10 07:06:38;;;;;;;16.35;12.18;;;2.70;81.50;;;;;;5114811;28;20691;-59
2022/03/10 07:09:05;;;;;;;14.98;12.82;;;2.80;81.10;;;;;;5114682;28;20693;-60
2022/03/10 07:11:32;;;;;;;17.85;12.02;;;2.90;80.80;;;;;;5115597;28;20655;-59
2022/03/10 07:13:59;;;;;;;14.82;11.85;;;3.00;80.40;;;;;;5115030;28;20206;-60
2022/03/10 07:16:27;;;;;;;14.30;11.55;;;3.10;80.00;;;;;;5114887;28;20206;-60
2022/03/10 07:18:55;;;;;;;15.07;11.63;;;3.20;79.60;;;;;;5115070;28;20196;-60
2022/03/10 07:21:23;;;;;;;17.60;11.38;;;3.30;79.20;;;;;;5114205;28;20232;-60
2022/03/10 07:23:51;;;;;;;17.02;11.65;;;3.50;78.60;;;;;;5114630;28;20200;-61
2022/03/10 07:26:18;;;;;;;15.82;12.48;;;3.60;78.00;;;;;;5114606;28;20199;-59
2022/03/10 07:28:45;;;;;;;16.30;11.88;;;3.70;77.20;;;;;;5120152;28;20216;-59
2022/03/10 07:31:12;;;;;;;20.35;11.35;;;3.80;76.50;;;;;;5119379;28;20328;-59
2022/03/10 07:33:39;;;;;;;16.48;10.98;;;3.90;76.00;;;;;;5116139;28;20207;-59
2022/03/10 07:36:08;;;;;;;13.07;10.50;;;4.10;75.50;;;;;;5116252;28;20211;-59
2022/03/10 07:38:35;;;;;;;16.65;11.82;;;4.20;74.90;;;;;;5114931;28;20565;-60
2022/03/10 07:41:02;;;;;;;20.58;11.98;;;4.30;74.30;;;;;;5113904;28;20219;-59
2022/03/10 07:43:29;;;;;;;15.43;12.60;;;4.40;73.50;;;;;;5113855;28;20211;-58
2022/03/10 07:45:56;;;;;;;14.13;11.50;;;4.60;72.80;;;;;;5114287;28;20223;-58
2022/03/10 07:48:23;;;;;;;16.40;11.98;;;4.70;72.10;;;;;;5114325;28;20548;-61
2022/03/10 07:50:50;;;;;;;15.15;12.15;;;4.80;71.20;;;;;;5114179;28;20219;-60
2022/03/10 07:53:19;;;;;;;12.23;10.93;;;4.90;70.40;;;;;;5114660;28;20199;-60
2022/03/10 07:55:46;;;;;;;11.30;10.10;;;5.00;69.70;;;;;;5114650;28;20264;-59
2022/03/10 07:58:13;;;;;;;12.88;10.63;;;5.10;69.00;;;;;;5114706;28;20200;-59
2022/03/10 08:00:41;;;;;;;13.38;10.00;;;5.20;68.30;;;;;;5114300;28;20725;-60
2022/03/10 08:03:09;;;;;;;15.27;10.45;;;5.30;67.60;;;;;;5118254;28;20204;-60
2022/03/10 08:05:37;;;;;;;13.25;10.80;;;5.40;67.00;;;;;;5120296;28;20199;-59
2022/03/10 08:08:05;;;;;;;12.18;10.60;;;5.60;66.20;;;;;;5122338;28;20230;-60
2022/03/10 08:10:34;;;;;;;16.45;9.65;;;5.70;65.30;;;;;;5125154;28;20223;-60
2022/03/10 08:13:01;;;;;;;14.18;11.48;;;5.80;64.40;;;;;;5126020;28;20294;-60
2022/03/10 08:15:28;;;;;;;14.48;10.00;;;5.90;63.60;;;;;;5127410;28;20199;-60
2022/03/10 08:17:55;;;;;;;12.93;10.52;;;6.10;63.00;;;;;;5125409;28;20203;-62
2022/03/10 08:20:23;;;;;;;12.73;10.70;;;6.20;62.30;;;;;;5120938;28;20227;-62
2022/03/10 08:22:50;;;;;;;17.63;9.98;;;6.30;61.80;;;;;;5122486;28;20251;-59
2022/03/10 08:25:17;;;;;;;12.43;10.05;;;6.40;61.40;;;;;;5119773;28;20744;-62
2022/03/10 08:27:47;;;;;;;11.23;9.52;;;6.60;60.80;;;;;;5117926;28;20200;-62
2022/03/10 08:30:14;;;;;;;17.27;9.73;;;6.80;60.20;;;;;;5114720;28;20223;-61
2022/03/10 08:32:43;;;;;;;15.23;8.88;;;7.00;60.20;;;;;;5113943;28;20671;-60
2022/03/10 08:35:10;;;;;;;14.10;8.45;;;7.10;58.70;;;;;;5113986;28;20222;-62
2022/03/10 08:37:38;;;;;;;12.02;9.85;;;7.20;58.00;;;;;;5113663;28;20195;-61
2022/03/10 08:40:07;;;;;;;14.77;10.27;;;7.30;57.20;;;;;;5113895;28;20212;-61
2022/03/10 08:42:34;;;;;;;10.02;9.02;;;7.40;56.60;;;;;;5113430;28;20203;-60
2022/03/10 08:45:03;;;;;;;12.10;9.40;;;7.50;56.20;;;;;;5113675;28;20202;-58
2022/03/10 08:47:32;;;;;;;16.08;9.73;;;7.60;55.80;;;;;;5113276;28;20285;-60
2022/03/10 08:49:59;;;;;;;13.63;8.73;;;7.70;55.30;;;;;;5116097;28;20227;-61
2022/03/10 08:52:26;;;;;;;11.45;9.38;;;7.70;54.70;;;;;;5121553;28;20199;-60
2022/03/10 08:54:53;;;;;;;17.02;9.23;;;7.80;54.40;;;;;;5118596;28;20200;-61
2022/03/10 08:57:20;;;;;;;14.07;9.57;;;7.90;54.10;;;;;;5118010;28;20210;-63
2022/03/10 08:59:47;;;;;;;10.43;9.30;;;8.00;53.70;;;;;;5118046;28;20202;-63
2022/03/10 09:02:16;;;;;;;12.32;9.30;;;8.10;53.50;;;;;;5117463;28;20199;-60
2022/03/10 09:04:43;;;;;;;11.95;9.40;;;8.20;53.40;;;;;;5118057;28;20285;-60
2022/03/10 09:07:11;;;;;;;10.85;9.60;;;8.30;53.20;;;;;;5117817;28;20210;-60
2022/03/10 09:09:38;;;;;;;13.55;10.45;;;8.40;52.90;;;;;;5121721;28;20219;-61
2022/03/10 09:12:06;;;;;;;11.20;9.30;;;8.50;52.70;;;;;;5122564;28;20565;-60
2022/03/10 09:14:33;;;;;;;11.82;9.68;;;8.60;52.50;;;;;;5122388;28;20200;-60
2022/03/10 09:17:00;;;;;;;10.50;9.45;;;8.70;52.30;;;;;;5123462;28;20783;-61
2022/03/10 09:19:28;;;;;;;10.15;9.15;;;8.70;52.00;;;;;;5122341;28;20191;-61
2022/03/10 09:21:55;;;;;;;12.07;8.65;;;8.70;51.90;;;;;;5120160;28;20596;-61
2022/03/10 09:24:22;;;;;;;11.00;9.85;;;8.80;51.80;;;;;;5124304;28;20203;-60
2022/03/10 09:26:50;;;;;;;10.37;8.87;;;8.80;51.70;;;;;;5123540;28;20206;-62
2022/03/10 09:29:17;;;;;;;9.98;8.57;;;8.90;51.50;;;;;;5123824;28;20481;-60
2022/03/10 09:31:44;;;;;;;10.87;8.77;;;9.10;51.30;;;;;;5124364;28;20331;-61
2022/03/10 09:34:11;;;;;;;11.73;9.30;;;9.20;51.00;;;;;;5124990;28;20925;-60
2022/03/10 09:36:39;;;;;;;11.68;9.40;;;9.30;50.70;;;;;;5124629;28;20218;-61
2022/03/10 09:39:07;;;;;;;9.68;8.05;;;9.40;50.40;;;;;;5121717;28;20665;-61
2022/03/10 09:41:34;;;;;;;10.20;9.20;;;9.50;50.10;;;;;;5123999;28;20215;-61
2022/03/10 09:44:02;;;;;;;13.40;9.20;;;9.60;49.80;;;;;;5120339;28;20199;-62
2022/03/10 09:46:29;;;;;;;9.40;8.20;;;9.70;49.60;;;;;;5119435;28;20861;-60
2022/03/10 09:48:56;;;;;;;8.88;7.97;;;9.80;49.30;;;;;;5118828;28;20515;-58
2022/03/10 09:51:23;;;;;;;9.93;8.50;;;9.90;48.90;;;;;;5119272;28;20760;-60
2022/03/10 09:53:52;;;;;;;9.10;8.20;;;10.00;47.50;;;;;;5119503;28;20494;-60
2022/03/10 09:56:21;;;;;;;13.93;9.17;;;10.00;47.10;;;;;;5117702;28;20437;-61
2022/03/10 09:58:48;;;;;;;11.63;9.17;;;10.00;46.80;;;;;;5117969;28;20830;-60
2022/03/10 10:01:15;;;;;;;10.63;8.70;;;10.10;46.70;;;;;;5118459;28;20457;-61
2022/03/10 10:03:42;;;;;;;9.17;8.20;;;10.20;46.70;;;;;;5119948;28;20892;-60
2022/03/10 10:06:09;;;;;;;8.37;7.53;;;10.40;46.60;;;;;;5120474;28;20445;-60
2022/03/10 10:08:38;;;;;;;10.10;9.03;;;10.50;46.30;;;;;;5118762;28;20448;-59
2022/03/10 10:11:07;;;;;;;11.53;8.90;;;10.60;46.20;;;;;;5118201;28;20485;-62
2022/03/10 10:13:37;;;;;;;13.10;7.90;;;10.70;46.10;;;;;;5118124;28;20448;-61
2022/03/10 10:16:06;;;;;;;10.00;8.50;;;10.80;46.00;;;;;;5118576;28;20921;-59
2022/03/10 10:18:35;;;;;;;8.20;7.40;;;10.90;45.90;;;;;;5118019;28;20440;-62
2022/03/10 10:21:03;;;;;;;10.47;8.40;;;11.10;45.80;;;;;;5146796;22;20484;-58
2022/03/10 10:23:32;;;;;;;11.07;9.23;;;11.30;45.50;;;;;;5136014;27;20939;-57
2022/03/10 10:26:02;;;;;;;10.07;7.80;;;11.40;45.20;;;;;;5136346;27;20495;-58
2022/03/10 10:28:32;;;;;;;17.03;8.50;;;11.40;44.90;;;;;;5136034;27;20448;-57
2022/03/10 10:31:01;;;;;;;10.47;7.63;;;11.50;44.70;;;;;;5136999;27;20487;-57
2022/03/10 10:33:29;;;;;;;8.13;7.33;;;11.70;44.60;;;;;;5136379;27;20455;-55
2022/03/10 10:36:17;;;;;;;11.07;7.70;;;11.80;44.20;;;;;;5136936;27;20440;-56
2022/03/10 10:38:46;;;;;;;8.83;7.60;;;12.00;43.80;;;;;;5136527;27;20424;-56
2022/03/10 10:41:26;;;;;;;11.10;8.50;;;12.10;43.20;;;;;;5136913;27;20463;-57
2022/03/10 10:43:57;;;;;;;10.70;7.80;;;12.10;43.00;;;;;;5136328;27;20421;-57
2022/03/10 10:46:33;;;;;;;13.40;9.33;;;12.10;42.80;;;;;;5136873;27;20432;-58
2022/03/10 10:49:03;;;;;;;9.10;7.57;;;12.10;42.70;;;;;;5137815;27;20916;-56
2022/03/10 10:51:33;;;;;;;13.00;8.23;;;12.10;42.50;;;;;;5137581;27;20460;-57
2022/03/10 10:54:01;;;;;;;11.23;8.73;;;12.00;42.30;;;;;;5137815;27;20779;-55
2022/03/10 10:56:30;;;;;;;9.53;8.00;;;12.00;42.00;;;;;;5137146;27;20959;-56
2022/03/10 10:59:00;;;;;;;8.83;7.63;;;12.00;41.90;;;;;;5137144;27;21007;-57
2022/03/10 11:01:36;;;;;;;14.10;9.43;;;12.00;42.00;;;;;;5137590;27;20490;-56
2022/03/10 11:04:05;;;;;;;16.63;12.60;;;12.10;42.10;;;;;;5138103;27;20439;-57
2022/03/10 11:06:34;;;;;;;9.10;7.53;;;12.30;42.00;;;;;;5137359;27;20445;-55
2022/03/10 11:09:02;;;;;;;9.17;8.17;;;12.50;41.90;;;;;;5135898;27;20441;-56
2022/03/10 11:11:31;;;;;;;10.77;9.43;;;12.60;41.30;;;;;;5136139;27;20484;-56
2022/03/10 11:14:00;;;;;;;10.00;8.70;;;12.60;41.10;;;;;;5136711;27;20520;-55
2022/03/10 11:16:28;;;;;;;10.70;9.30;;;12.60;41.40;;;;;;5136709;27;20440;-56
2022/03/10 11:18:55;;;;;;;10.27;8.53;;;12.50;41.40;;;;;;5136682;27;20892;-57
2022/03/10 11:21:52;;;;;;;11.03;9.93;;;12.60;41.30;;;;;;5136097;27;20500;-59
2022/03/10 11:24:41;;;;;;;9.47;8.53;;;12.50;41.10;;;;;;5135321;27;20421;-56
2022/03/10 11:27:13;;;;;;;10.27;7.77;;;12.50;41.20;;;;;;5135509;27;20421;-57
2022/03/10 11:29:45;;;;;;;11.20;8.40;;;12.50;41.00;;;;;;5135124;27;20468;-55
2022/03/10 11:32:13;;;;;;;11.47;8.70;;;12.60;40.90;;;;;;5134969;27;20472;-57
2022/03/10 11:34:53;;;;;;;8.83;7.90;;;12.60;40.80;;;;;;5135367;27;20444;-55
2022/03/10 11:37:50;;;;;;;8.97;7.90;;;12.70;40.80;;;;;;5135581;27;20456;-56
2022/03/10 11:40:19;;;;;;;11.90;7.93;;;12.90;40.30;;;;;;5135226;27;20429;-57
2022/03/10 11:42:46;;;;;;;8.80;7.13;;;13.00;40.10;;;;;;5135003;27;20462;-56
2022/03/10 11:45:17;;;;;;;8.90;7.07;;;13.10;39.90;;;;;;5135486;27;20486;-57
2022/03/10 11:47:45;;;;;;;9.70;8.10;;;13.20;39.50;;;;;;5135058;27;20460;-56
2022/03/10 11:50:30;;;;;;;10.73;7.60;;;13.40;39.30;;;;;;5134706;27;20484;-56
2022/03/10 11:53:00;;;;;;;9.20;7.70;;;13.40;38.90;;;;;;5134551;27;20444;-57
2022/03/10 11:55:42;;;;;;;12.00;7.60;;;13.50;38.80;;;;;;5134123;27;20444;-55
2022/03/10 11:58:10;;;;;;;9.73;7.40;;;13.60;38.70;;;;;;5134045;27;20440;-57
2022/03/10 12:00:53;;;;;;;12.07;7.50;;;13.60;38.60;;;;;;5134721;27;20543;-55
2022/03/10 12:03:27;;;;;;;10.77;8.23;;;13.70;38.70;;;;;;5134379;27;20880;-56
2022/03/10 12:05:56;;;;;;;9.60;7.80;;;13.70;39.40;;;;;;5134138;27;20460;-56
2022/03/10 12:08:25;;;;;;;12.50;9.63;;;13.70;39.00;;;;;;5133994;27;20497;-56
2022/03/10 12:10:52;;;;;;;9.57;8.13;;;13.70;39.20;;;;;;5133748;27;20480;-56
2022/03/10 12:13:38;;;;;;;11.93;7.83;;;13.70;39.50;;;;;;5134562;27;20448;-56
2022/03/10 12:16:07;;;;;;;10.43;7.53;;;13.60;39.90;;;;;;5135217;27;20425;-56
2022/03/10 12:18:45;;;;;;;9.70;7.67;;;13.70;40.10;;;;;;5134359;27;20447;-57
2022/03/10 12:21:23;;;;;;;10.93;8.67;;;13.80;40.00;;;;;;5134620;27;20539;-58
2022/03/10 12:23:55;;;;;;;9.80;8.80;;;13.90;40.00;;;;;;5134857;27;20427;-57
2022/03/10 12:26:27;;;;;;;14.40;9.67;;;14.00;40.20;;;;;;5134807;27;20672;-57
2022/03/10 12:28:56;;;;;;;12.30;9.60;;;14.00;40.40;;;;;;5134554;27;20484;-57
2022/03/10 12:31:39;;;;;;;10.97;9.20;;;14.00;40.50;;;;;;5144541;27;20484;-54
2022/03/10 12:34:09;;;;;;;12.70;8.97;;;14.10;40.50;;;;;;5137923;27;20439;-61
2022/03/10 12:36:37;;;;;;;18.10;11.37;;;14.10;40.40;;;;;;5138320;27;20448;-61
2022/03/10 12:39:09;;;;;;;13.73;10.23;;;14.00;40.50;;;;;;5137911;27;20475;-61
2022/03/10 12:41:37;;;;;;;11.80;9.60;;;13.90;40.60;;;;;;5143802;27;20869;-60
2022/03/10 12:44:06;;;;;;;16.63;12.43;;;13.90;40.90;;;;;;5138823;27;20448;-59
2022/03/10 12:46:37;;;;;;;10.73;9.40;;;13.90;40.90;;;;;;5138883;27;20517;-58
2022/03/10 12:49:25;;;;;;;11.20;8.80;;;14.00;41.00;;;;;;5138961;27;20939;-60
2022/03/10 12:52:27;;;;;;;10.80;9.70;;;13.90;40.70;;;;;;5137774;27;20991;-56